CheckWX is a tool to help pilots better visualize weather data.  It is not intended as a substitute for an official pre-flight weather briefing.

12:34:51 UTC

KMKT TAF
Mankato Regional Airport
Mankato, Minnesota, USA
KMKT 261120Z 2612/2712 00000KT 6SM BR SCT040 BKN250 FM261800 19010KT P6SM SCT040 SCT250 FM262300 17010KT P6SM BKN060 FM270500 18012G20KT P6SM SCT040 BKN250

Mar-26@
12:00 UTC

Mar-26 @ 12:00 UTC

Mar-26@
18:00 UTC

Mar-26 @ 18:00 UTC

KMKT 261120Z 2612/2712 00000KT 6SM BR SCT040 BKN250
Conditions
Mist
Cloud Levels
  • Scattered at 4,000' AGL
  • Broken at 25,000' AGL

Mar-26@
18:00 UTC

Mar-26 @ 18:00 UTC

Mar-26@
23:00 UTC

Mar-26 @ 23:00 UTC

FM261800 19010KT P6SM SCT040 SCT250

From

From Standard forecast or significant change

Wind
  • 190° at 10 KTS
Cloud Levels
  • Scattered at 4,000' AGL
  • Scattered at 25,000' AGL

Mar-26@
23:00 UTC

Mar-26 @ 23:00 UTC

Mar-27@
05:00 UTC

Mar-27 @ 05:00 UTC

FM262300 17010KT P6SM BKN060

From

From Standard forecast or significant change

Wind
  • 170° at 10 KTS
Cloud Levels
  • Broken at 6,000' AGL

Mar-27@
05:00 UTC

Mar-27 @ 05:00 UTC

Mar-27@
12:00 UTC

Mar-27 @ 12:00 UTC

FM270500 18012G20KT P6SM SCT040 BKN250

From

From Standard forecast or significant change

Wind
  • 180° at 12 KTS
  • {Gusting to 20 KTS
Cloud Levels
  • Scattered at 4,000' AGL
  • Broken at 25,000' AGL